createdAt,value
2023-02-19T00:01:08.147Z,98374.06
2023-02-19T00:04:23.829Z,98372.81
2023-02-19T00:07:28.637Z,98378.69
2023-02-19T00:10:32.581Z,98369.19
2023-02-19T00:13:38.753Z,98376.13
2023-02-19T00:16:44.742Z,98380.88
2023-02-19T00:19:49.828Z,98377.97
2023-02-19T00:22:59.531Z,98385.47
2023-02-19T00:26:17.495Z,98381.47
2023-02-19T00:29:27.009Z,98381.81
2023-02-19T00:32:32.560Z,98394.63
2023-02-19T00:35:39.655Z,98399.13
2023-02-19T00:38:45.747Z,98397.16
2023-02-19T00:41:50.232Z,98404.91
2023-02-19T00:44:55.271Z,98411.72
2023-02-19T00:48:03.064Z,98416.63
2023-02-19T00:51:08.786Z,98426.19
2023-02-19T00:54:14.203Z,98425.81
2023-02-19T00:57:17.970Z,98414.00
2023-02-19T01:00:24.005Z,98422.22
2023-02-19T01:03:31.207Z,98411.94
2023-02-19T01:06:39.359Z,98404.72
2023-02-19T01:09:44.581Z,98404.47
2023-02-19T01:12:48.783Z,98423.63
2023-02-19T01:15:53.990Z,98416.53
2023-02-19T01:18:58.397Z,98424.81
2023-02-19T01:22:03.512Z,98425.28
2023-02-19T01:25:09.930Z,98429.13
2023-02-19T01:28:14.150Z,98417.28
2023-02-19T01:31:20.517Z,98415.44
2023-02-19T01:34:24.557Z,98416.56
2023-02-19T01:37:30.858Z,98425.88
2023-02-19T01:40:39.729Z,98423.16
2023-02-19T01:44:04.525Z,98428.44
2023-02-19T01:47:08.353Z,98422.81
2023-02-19T01:50:12.822Z,98428.13
2023-02-19T01:53:23.288Z,98425.34
2023-02-19T01:56:30.056Z,98421.97
2023-02-19T01:59:35.019Z,98423.88
2023-02-19T02:02:41.697Z,98420.75
2023-02-19T02:05:56.249Z,98426.91
2023-02-19T02:09:19.558Z,98422.56
2023-02-19T02:12:23.787Z,98427.31
2023-02-19T02:15:36.604Z,98418.16
2023-02-19T02:18:54.558Z,98419.75
2023-02-19T02:22:10.218Z,98418.25
2023-02-19T02:25:45.351Z,98416.53
2023-02-19T02:29:38.762Z,98418.47
2023-02-19T02:32:54.762Z,98421.28
2023-02-19T02:36:05.423Z,98407.53
2023-02-19T02:39:17.634Z,98416.19
2023-02-19T02:42:30.179Z,98417.41
2023-02-19T02:45:45.375Z,98422.66
2023-02-19T02:49:05.116Z,98404.88
2023-02-19T02:52:36.980Z,98428.88
2023-02-19T02:55:45.606Z,98419.66
2023-02-19T02:58:57.335Z,98424.56
2023-02-19T03:02:14.361Z,98424.34
2023-02-19T03:05:43.221Z,98417.88
2023-02-19T03:08:55.230Z,98410.25
2023-02-19T03:12:21.403Z,98411.72
2023-02-19T03:15:47.082Z,98408.03
2023-02-19T03:19:13.916Z,98411.25
2023-02-19T03:22:28.069Z,98409.84
2023-02-19T03:25:51.843Z,98410.75
2023-02-19T03:29:22.387Z,98411.44
2023-02-19T03:32:33.920Z,98403.78
2023-02-19T03:35:43.258Z,98401.44
2023-02-19T03:38:57.693Z,98409.41
2023-02-19T03:42:13.560Z,98410.88
2023-02-19T03:45:36.522Z,98414.56
2023-02-19T03:48:52.509Z,98418.25
2023-02-19T03:52:02.945Z,98415.59
2023-02-19T03:55:14.349Z,98414.09
2023-02-19T03:58:27.004Z,98420.13
2023-02-19T04:01:37.968Z,98423.13
2023-02-19T04:04:49.102Z,98405.44
2023-02-19T04:07:58.333Z,98408.97
2023-02-19T04:11:11.533Z,98415.72
2023-02-19T04:14:22.060Z,98407.94
2023-02-19T04:17:32.088Z,98417.50
2023-02-19T04:20:41.956Z,98412.59
2023-02-19T04:23:47.738Z,98406.34
2023-02-19T04:26:55.231Z,98403.16
2023-02-19T04:30:01.611Z,98402.03
2023-02-19T04:33:07.075Z,98408.16
2023-02-19T04:36:14.440Z,98400.13
2023-02-19T04:39:19.387Z,98387.69
2023-02-19T04:42:24.668Z,98403.75
2023-02-19T04:45:47.411Z,98401.47
2023-02-19T04:48:51.217Z,98404.47
2023-02-19T04:51:55.086Z,98403.53
2023-02-19T04:54:58.621Z,98399.78
2023-02-19T04:58:04.012Z,98398.63
2023-02-19T05:01:10.213Z,98397.84
2023-02-19T05:04:14.637Z,98393.53
2023-02-19T05:07:18.794Z,98403.41
2023-02-19T05:10:23.731Z,98400.41
2023-02-19T05:13:31.856Z,98405.31
2023-02-19T05:16:37.307Z,98404.19
2023-02-19T05:19:41.372Z,98406.91
2023-02-19T05:22:45.914Z,98397.91
2023-02-19T05:25:49.477Z,98389.97
2023-02-19T05:28:57.447Z,98389.78
2023-02-19T05:32:02.950Z,98379.66
2023-02-19T05:35:08.019Z,98375.81
2023-02-19T05:38:13.088Z,98378.84
2023-02-19T05:41:19.708Z,98380.31
2023-02-19T05:44:26.143Z,98391.00
2023-02-19T05:47:30.565Z,98396.25
2023-02-19T05:50:39.869Z,98395.94
2023-02-19T05:53:52.088Z,98387.78
2023-02-19T05:56:57.520Z,98396.56
2023-02-19T06:00:03.300Z,98395.50
2023-02-19T06:03:17.872Z,98394.81
2023-02-19T06:06:23.119Z,98403.28
2023-02-19T06:09:28.130Z,98400.84
2023-02-19T06:12:33.663Z,98403.53
2023-02-19T06:15:40.577Z,98406.59
2023-02-19T06:18:45.100Z,98405.69
2023-02-19T06:21:51.847Z,98402.81
2023-02-19T06:24:56.995Z,98406.41
2023-02-19T06:28:03.096Z,98413.06
2023-02-19T06:31:12.397Z,98415.88
2023-02-19T06:34:16.760Z,98407.41
2023-02-19T06:37:21.102Z,98401.69
2023-02-19T06:40:46.561Z,98407.38
2023-02-19T06:43:50.782Z,98401.94
2023-02-19T06:46:57.532Z,98392.44
2023-02-19T06:50:02.834Z,98394.94
2023-02-19T06:53:38.138Z,98387.81
2023-02-19T06:56:46.048Z,98383.44
2023-02-19T06:59:59.017Z,98380.38
2023-02-19T07:03:06.523Z,98387.97
2023-02-19T07:06:10.376Z,98389.03
2023-02-19T07:09:16.935Z,98380.75
2023-02-19T07:12:23.933Z,98388.03
2023-02-19T07:15:29.969Z,98378.50
2023-02-19T07:18:50.195Z,98385.09
2023-02-19T07:22:00.549Z,98374.56
2023-02-19T07:25:13.292Z,98372.22
2023-02-19T07:28:19.517Z,98366.03
2023-02-19T07:31:25.389Z,98365.78
2023-02-19T07:34:43.991Z,98364.47
2023-02-19T07:37:48.249Z,98365.38
2023-02-19T07:40:54.353Z,98363.63
2023-02-19T07:43:57.986Z,98363.00
2023-02-19T07:47:05.503Z,98357.00
2023-02-19T07:50:13.970Z,98344.78
2023-02-19T07:53:20.525Z,98347.94
2023-02-19T07:56:40.953Z,98341.47
2023-02-19T08:00:01.381Z,98343.22
2023-02-19T08:03:12.516Z,98345.25
2023-02-19T08:06:19.297Z,98337.19
2023-02-19T08:09:34.126Z,98341.31
2023-02-19T08:13:16.141Z,98340.44
2023-02-19T08:16:33.250Z,98328.56
2023-02-19T08:19:47.707Z,98323.66
2023-02-19T08:22:52.742Z,98325.25
2023-02-19T08:26:01.022Z,98309.56
2023-02-19T08:29:09.161Z,98301.56
2023-02-19T08:32:17.157Z,98303.31
2023-02-19T08:35:21.084Z,98305.22
2023-02-19T08:38:28.295Z,98296.50
2023-02-19T08:41:33.120Z,98293.41
2023-02-19T08:44:38.030Z,98296.56
2023-02-19T08:47:43.448Z,98291.53
2023-02-19T08:50:56.936Z,98292.59
2023-02-19T08:54:05.299Z,98283.84
2023-02-19T08:57:13.615Z,98279.16
2023-02-19T09:00:18.510Z,98284.78
2023-02-19T09:03:26.741Z,98277.72
2023-02-19T09:06:31.729Z,98272.97
2023-02-19T09:09:39.653Z,98275.50
2023-02-19T09:12:45.286Z,98270.94
2023-02-19T09:15:50.687Z,98277.78
2023-02-19T09:18:54.394Z,98264.84
2023-02-19T09:21:59.843Z,98255.34
2023-02-19T09:25:08.106Z,98247.59
2023-02-19T09:28:11.973Z,98236.47
2023-02-19T09:31:23.370Z,98240.25
2023-02-19T09:34:29.737Z,98233.13
2023-02-19T09:37:34.246Z,98233.44
2023-02-19T09:40:40.523Z,98220.75
2023-02-19T09:43:45.441Z,98219.50
2023-02-19T09:46:52.365Z,98218.91
2023-02-19T09:50:02.100Z,98211.28
2023-02-19T09:53:15.789Z,98210.19
2023-02-19T09:56:26.780Z,98206.50
2023-02-19T09:59:38.282Z,98198.13
2023-02-19T10:03:07.284Z,98203.06
2023-02-19T10:06:20.564Z,98192.97
2023-02-19T10:09:27.042Z,98194.78
2023-02-19T10:12:35.168Z,98182.56
2023-02-19T10:15:43.945Z,98172.91
2023-02-19T10:18:48.909Z,98173.34
2023-02-19T10:21:52.751Z,98175.31
2023-02-19T10:24:58.052Z,98175.28
2023-02-19T10:28:05.892Z,98162.84
2023-02-19T10:31:20.555Z,98163.34
2023-02-19T10:34:24.633Z,98156.13
2023-02-19T10:37:29.460Z,98156.28
2023-02-19T10:40:34.624Z,98150.16
2023-02-19T10:43:44.545Z,98145.16
2023-02-19T10:46:52.041Z,98139.88
2023-02-19T10:50:02.509Z,98139.06
2023-02-19T10:53:07.955Z,98121.91
2023-02-19T10:56:16.332Z,98115.06
2023-02-19T10:59:26.781Z,98113.53
2023-02-19T11:02:32.218Z,98108.84
2023-02-19T11:05:39.386Z,98104.00
2023-02-19T11:08:54.442Z,98103.25
2023-02-19T11:11:59.590Z,98099.41
2023-02-19T11:15:22.868Z,98078.75
2023-02-19T11:18:28.613Z,98081.78
2023-02-19T11:21:33.545Z,98085.47
2023-02-19T11:24:40.656Z,98068.75
2023-02-19T11:27:56.327Z,98065.97
2023-02-19T11:31:25.414Z,98062.72
2023-02-19T11:34:31.230Z,98063.41
2023-02-19T11:37:34.758Z,98060.59
2023-02-19T11:40:45.516Z,98060.13
2023-02-19T11:44:03.234Z,98049.53
2023-02-19T11:47:34.529Z,98054.16
2023-02-19T11:50:50.009Z,98051.06
2023-02-19T11:54:06.121Z,98046.25
2023-02-19T11:57:21.318Z,98033.88
2023-02-19T12:00:31.698Z,98035.97
2023-02-19T12:03:55.938Z,98031.69
2023-02-19T12:07:13.147Z,98033.66
2023-02-19T12:10:23.481Z,98025.38
2023-02-19T12:13:41.542Z,98021.28
2023-02-19T12:16:55.140Z,98022.00
2023-02-19T12:20:13.762Z,98021.69
2023-02-19T12:23:42.113Z,98014.19
2023-02-19T12:26:52.854Z,98010.00
2023-02-19T12:30:18.404Z,98006.97
2023-02-19T12:33:56.910Z,97998.88
2023-02-19T12:37:17.797Z,97998.16
2023-02-19T12:40:44.588Z,97995.91
2023-02-19T12:43:56.639Z,97983.19
2023-02-19T12:47:03.459Z,97984.81
2023-02-19T12:50:16.630Z,97981.56
2023-02-19T12:53:35.076Z,97980.25
2023-02-19T12:56:43.652Z,97976.47
2023-02-19T14:06:09.957Z,98002.47
2023-02-19T14:09:47.510Z,97989.88
2023-02-19T14:12:51.090Z,97998.47
2023-02-19T14:15:55.198Z,97997.97
2023-02-19T14:18:59.469Z,98009.66
2023-02-19T14:22:45.062Z,98010.47
2023-02-19T14:26:36.630Z,98013.09
2023-02-19T14:29:44.523Z,98005.94
2023-02-19T14:33:25.634Z,98018.47
2023-02-19T14:36:51.558Z,98020.38
2023-02-19T14:40:01.481Z,98023.78
2023-02-19T14:43:07.394Z,98034.78
2023-02-19T14:46:19.855Z,98027.44
2023-02-19T14:49:31.446Z,98028.44
2023-02-19T14:52:44.502Z,98029.78
2023-02-19T14:55:51.991Z,98032.75
2023-02-19T14:59:10.725Z,98028.78
2023-02-19T15:02:17.867Z,98036.34
2023-02-19T15:05:31.025Z,98047.19
2023-02-19T15:08:39.304Z,98045.84
2023-02-19T15:11:52.067Z,98047.94
2023-02-19T15:15:02.392Z,98057.78
2023-02-19T15:18:10.026Z,98055.84
2023-02-19T15:21:27.718Z,98051.50
2023-02-19T15:24:31.766Z,98042.78
2023-02-19T15:27:40.229Z,98046.28
2023-02-19T15:30:44.910Z,98047.16
2023-02-19T15:33:55.946Z,98038.47
2023-02-19T15:37:16.075Z,98037.69
2023-02-19T15:40:30.921Z,98036.16
2023-02-19T15:43:51.238Z,98038.47
2023-02-19T15:46:57.387Z,98050.66
2023-02-19T15:50:09.866Z,98050.06
2023-02-19T15:53:47.362Z,98060.69
2023-02-19T15:57:10.929Z,98057.31
2023-02-19T16:00:23.404Z,98071.78
2023-02-19T16:03:29.285Z,98072.28
2023-02-19T16:06:54.677Z,98066.28
2023-02-19T16:10:09.669Z,98075.88
2023-02-19T16:13:14.452Z,98074.22
2023-02-19T16:16:27.927Z,98064.19
2023-02-19T16:19:44.497Z,98066.41
2023-02-19T16:22:49.662Z,98073.06
2023-02-19T16:26:00.333Z,98086.03
2023-02-19T16:29:29.685Z,98083.88
2023-02-19T16:32:54.449Z,98096.09
2023-02-19T16:36:32.629Z,98096.28
2023-02-19T16:40:27.458Z,98104.16
2023-02-19T16:43:42.178Z,98107.47
2023-02-19T16:47:04.402Z,98116.22
2023-02-19T16:50:19.760Z,98128.56
2023-02-19T16:53:30.708Z,98130.22
2023-02-19T16:56:39.229Z,98132.91
2023-02-19T16:59:48.736Z,98138.19
2023-02-19T17:02:55.013Z,98155.63
2023-02-19T17:06:00.399Z,98160.13
2023-02-19T17:09:09.859Z,98158.09
2023-02-19T17:12:25.928Z,98170.22
2023-02-19T17:15:33.043Z,98174.41
2023-02-19T17:18:38.937Z,98178.28
2023-02-19T17:21:47.277Z,98184.97
2023-02-19T17:24:51.499Z,98195.63
2023-02-19T17:27:55.992Z,98205.88
2023-02-19T17:31:00.247Z,98217.00
2023-02-19T17:34:05.502Z,98220.38
2023-02-19T17:37:16.390Z,98217.00
2023-02-19T17:40:32.779Z,98233.03
2023-02-19T17:43:40.061Z,98227.88
2023-02-19T17:46:50.660Z,98235.41
2023-02-19T17:50:03.205Z,98245.53
2023-02-19T17:53:09.742Z,98247.91
2023-02-19T17:56:18.668Z,98244.00
2023-02-19T17:59:29.019Z,98256.81
2023-02-19T18:02:39.125Z,98267.53
2023-02-19T18:05:47.470Z,98265.56
2023-02-19T18:08:54.508Z,98266.72
2023-02-19T18:11:58.362Z,98260.38
2023-02-19T18:15:04.322Z,98268.41
2023-02-19T18:18:09.857Z,98270.59
2023-02-19T18:21:16.372Z,98285.75
2023-02-19T18:24:27.643Z,98287.56
2023-02-19T18:27:32.539Z,98299.13
2023-02-19T18:30:38.181Z,98308.66
2023-02-19T18:33:42.183Z,98309.72
2023-02-19T18:36:46.389Z,98306.03
2023-02-19T18:39:54.283Z,98316.94
2023-02-19T18:43:00.606Z,98318.56
2023-02-19T18:46:10.005Z,98319.47
2023-02-19T18:49:14.982Z,98329.94
2023-02-19T18:52:21.425Z,98335.00
2023-02-19T18:55:27.595Z,98348.94
2023-02-19T18:58:32.040Z,98351.72
2023-02-19T19:01:36.698Z,98344.66
2023-02-19T19:04:41.719Z,98358.91
2023-02-19T19:07:46.646Z,98363.91
2023-02-19T19:10:56.479Z,98353.88
2023-02-19T19:14:11.152Z,98361.78
2023-02-19T19:17:31.843Z,98372.69
2023-02-19T19:20:41.333Z,98375.44
2023-02-19T19:23:51.089Z,98382.22
2023-02-19T19:27:00.024Z,98376.88
2023-02-19T19:34:08.867Z,98383.00
2023-02-19T19:37:13.203Z,98394.75
2023-02-19T19:40:19.565Z,98401.75
2023-02-19T19:43:28.025Z,98395.09
2023-02-19T19:46:33.691Z,98393.09
2023-02-19T19:49:37.784Z,98389.84
2023-02-19T19:52:41.824Z,98408.31
2023-02-19T19:55:45.926Z,98409.78
2023-02-19T19:58:52.485Z,98413.09
2023-02-19T20:01:58.773Z,98411.84
2023-02-19T20:05:03.041Z,98416.88
2023-02-19T20:08:07.493Z,98413.00
2023-02-19T20:11:11.063Z,98418.47
2023-02-19T20:14:17.601Z,98408.44
2023-02-19T20:17:28.940Z,98417.88
2023-02-19T20:20:41.144Z,98428.50
2023-02-19T20:23:49.743Z,98425.94
2023-02-19T20:26:58.493Z,98436.66
2023-02-19T20:30:03.904Z,98430.41
2023-02-19T20:33:08.493Z,98430.00
2023-02-19T20:36:13.704Z,98434.72
2023-02-19T20:39:23.033Z,98447.31
2023-02-19T20:42:29.894Z,98439.63
2023-02-19T20:45:39.005Z,98439.00
2023-02-19T20:48:43.570Z,98433.50
2023-02-19T20:51:52.082Z,98448.13
2023-02-19T20:54:57.930Z,98442.03
2023-02-19T20:58:02.478Z,98447.47
2023-02-19T21:01:09.471Z,98442.13
2023-02-19T21:04:15.872Z,98442.31
2023-02-19T21:07:20.014Z,98436.91
2023-02-19T21:10:24.501Z,98448.03
2023-02-19T21:13:31.594Z,98447.75
2023-02-19T21:16:38.457Z,98452.50
2023-02-19T21:19:42.224Z,98453.56
2023-02-19T21:22:46.579Z,98467.34
2023-02-19T21:25:54.511Z,98468.75
2023-02-19T21:29:00.338Z,98473.28
2023-02-19T21:32:14.197Z,98474.44
2023-02-19T21:35:19.464Z,98470.84
2023-02-19T21:38:24.467Z,98471.72
2023-02-19T21:41:30.086Z,98477.81
2023-02-19T21:44:36.573Z,98474.41
2023-02-19T21:47:46.365Z,98493.41
2023-02-19T21:50:51.252Z,98490.63
2023-02-19T21:53:56.715Z,98492.19
2023-02-19T21:57:03.894Z,98489.31
2023-02-19T22:00:10.747Z,98490.41
2023-02-19T22:03:18.028Z,98487.94
2023-02-19T22:06:25.255Z,98500.97
2023-02-19T22:09:30.161Z,98507.81
2023-02-19T22:12:34.240Z,98496.22
2023-02-19T22:15:38.189Z,98504.50
2023-02-19T22:18:49.131Z,98502.25
2023-02-19T22:21:53.453Z,98509.22
2023-02-19T22:24:57.973Z,98505.50
2023-02-19T22:28:05.240Z,98496.50
2023-02-19T22:31:11.142Z,98502.69
2023-02-19T22:34:17.806Z,98506.78
2023-02-19T22:37:22.848Z,98516.09
2023-02-19T22:40:26.378Z,98532.81
2023-02-19T22:43:30.803Z,98526.47
2023-02-19T22:46:34.873Z,98541.25
2023-02-19T22:49:42.088Z,98538.06
2023-02-19T22:52:48.851Z,98567.00
2023-02-19T22:55:55.888Z,98554.38
2023-02-19T22:59:00.247Z,98559.59
2023-02-19T23:02:04.105Z,98572.72
2023-02-19T23:05:09.910Z,98579.19
2023-02-19T23:08:14.131Z,98571.53
2023-02-19T23:11:23.379Z,98564.72
2023-02-19T23:14:27.389Z,98566.50
2023-02-19T23:17:31.153Z,98573.91
2023-02-19T23:20:36.760Z,98579.69
2023-02-19T23:23:42.381Z,98563.78
2023-02-19T23:26:48.525Z,98575.56
2023-02-19T23:29:55.817Z,98575.09
2023-02-19T23:33:05.544Z,98591.34
2023-02-19T23:36:13.320Z,98583.41
2023-02-19T23:39:22.516Z,98577.59
2023-02-19T23:42:28.428Z,98584.63
2023-02-19T23:45:32.702Z,98579.22
2023-02-19T23:48:38.262Z,98585.81
2023-02-19T23:51:44.434Z,98593.38
2023-02-19T23:54:48.330Z,98593.84
2023-02-19T23:57:57.058Z,98597.28
